sensor_id;sensor_type;location;lat;lon;timestamp;P1;durP1;ratioP1;P2;durP2;ratioP2
71290;SDS011;59073;51.994;4.448;2023-12-04T00:01:52;9.82;;;9.61;;
71290;SDS011;59073;51.994;4.448;2023-12-04T00:04:18;10.17;;;9.88;;
71290;SDS011;59073;51.994;4.448;2023-12-04T00:06:43;9.77;;;9.54;;
71290;SDS011;59073;51.994;4.448;2023-12-04T00:09:09;9.36;;;9.20;;
71290;SDS011;59073;51.994;4.448;2023-12-04T00:11:34;9.36;;;9.26;;
71290;SDS011;59073;51.994;4.448;2023-12-04T00:14:00;9.54;;;9.41;;
71290;SDS011;59073;51.994;4.448;2023-12-04T00:16:26;9.74;;;9.62;;
71290;SDS011;59073;51.994;4.448;2023-12-04T00:18:51;9.71;;;9.63;;
71290;SDS011;59073;51.994;4.448;2023-12-04T00:21:17;9.27;;;9.11;;
71290;SDS011;59073;51.994;4.448;2023-12-04T00:23:42;9.03;;;8.93;;
71290;SDS011;59073;51.994;4.448;2023-12-04T00:26:08;9.15;;;9.08;;
71290;SDS011;59073;51.994;4.448;2023-12-04T00:28:35;9.20;;;9.13;;
71290;SDS011;59073;51.994;4.448;2023-12-04T00:31:01;9.56;;;9.45;;
71290;SDS011;59073;51.994;4.448;2023-12-04T00:33:26;9.16;;;8.99;;
71290;SDS011;59073;51.994;4.448;2023-12-04T00:35:52;8.87;;;8.78;;
71290;SDS011;59073;51.994;4.448;2023-12-04T00:38:17;9.02;;;8.83;;
71290;SDS011;59073;51.994;4.448;2023-12-04T00:40:43;8.85;;;8.71;;
71290;SDS011;59073;51.994;4.448;2023-12-04T00:43:08;8.92;;;8.74;;
71290;SDS011;59073;51.994;4.448;2023-12-04T00:45:33;8.90;;;8.71;;
71290;SDS011;59073;51.994;4.448;2023-12-04T00:47:59;9.28;;;9.13;;
71290;SDS011;59073;51.994;4.448;2023-12-04T00:50:24;8.78;;;8.57;;
71290;SDS011;59073;51.994;4.448;2023-12-04T00:52:50;8.68;;;8.52;;
71290;SDS011;59073;51.994;4.448;2023-12-04T00:55:15;8.95;;;8.74;;
71290;SDS011;59073;51.994;4.448;2023-12-04T00:57:41;8.87;;;8.69;;
71290;SDS011;59073;51.994;4.448;2023-12-04T01:00:06;8.47;;;8.38;;
71290;SDS011;59073;51.994;4.448;2023-12-04T01:02:32;8.52;;;8.40;;
71290;SDS011;59073;51.994;4.448;2023-12-04T01:04:58;8.37;;;8.27;;
71290;SDS011;59073;51.994;4.448;2023-12-04T01:07:23;8.38;;;8.21;;
71290;SDS011;59073;51.994;4.448;2023-12-04T01:09:49;8.08;;;7.91;;
71290;SDS011;59073;51.994;4.448;2023-12-04T01:12:14;8.67;;;8.49;;
71290;SDS011;59073;51.994;4.448;2023-12-04T01:14:39;8.55;;;8.44;;
71290;SDS011;59073;51.994;4.448;2023-12-04T01:17:05;8.35;;;8.25;;
71290;SDS011;59073;51.994;4.448;2023-12-04T01:19:32;8.51;;;8.39;;
71290;SDS011;59073;51.994;4.448;2023-12-04T01:21:58;8.34;;;8.25;;
71290;SDS011;59073;51.994;4.448;2023-12-04T01:24:23;8.25;;;8.16;;
71290;SDS011;59073;51.994;4.448;2023-12-04T01:26:48;8.30;;;8.13;;
71290;SDS011;59073;51.994;4.448;2023-12-04T01:29:14;8.49;;;8.34;;
71290;SDS011;59073;51.994;4.448;2023-12-04T01:31:39;8.76;;;8.59;;
71290;SDS011;59073;51.994;4.448;2023-12-04T01:34:05;8.87;;;8.63;;
71290;SDS011;59073;51.994;4.448;2023-12-04T01:36:30;8.92;;;8.73;;
71290;SDS011;59073;51.994;4.448;2023-12-04T01:38:56;8.91;;;8.61;;
71290;SDS011;59073;51.994;4.448;2023-12-04T01:41:21;8.89;;;8.56;;
71290;SDS011;59073;51.994;4.448;2023-12-04T01:43:47;8.90;;;8.69;;
71290;SDS011;59073;51.994;4.448;2023-12-04T01:46:13;8.33;;;8.21;;
71290;SDS011;59073;51.994;4.448;2023-12-04T01:48:43;8.07;;;7.92;;
71290;SDS011;59073;51.994;4.448;2023-12-04T01:51:10;8.23;;;8.12;;
71290;SDS011;59073;51.994;4.448;2023-12-04T01:53:38;8.27;;;8.13;;
71290;SDS011;59073;51.994;4.448;2023-12-04T01:56:05;8.25;;;8.15;;
71290;SDS011;59073;51.994;4.448;2023-12-04T01:58:31;7.85;;;7.79;;
71290;SDS011;59073;51.994;4.448;2023-12-04T02:00:58;8.06;;;7.93;;
71290;SDS011;59073;51.994;4.448;2023-12-04T02:03:23;8.13;;;8.00;;
71290;SDS011;59073;51.994;4.448;2023-12-04T02:05:50;8.19;;;8.08;;
71290;SDS011;59073;51.994;4.448;2023-12-04T02:08:16;8.26;;;8.18;;
71290;SDS011;59073;51.994;4.448;2023-12-04T02:10:43;8.63;;;8.55;;
71290;SDS011;59073;51.994;4.448;2023-12-04T02:13:08;7.60;;;7.54;;
71290;SDS011;59073;51.994;4.448;2023-12-04T02:15:34;8.01;;;7.87;;
71290;SDS011;59073;51.994;4.448;2023-12-04T02:18:01;8.12;;;8.04;;
71290;SDS011;59073;51.994;4.448;2023-12-04T02:20:32;8.20;;;8.05;;
71290;SDS011;59073;51.994;4.448;2023-12-04T02:23:01;8.22;;;8.08;;
71290;SDS011;59073;51.994;4.448;2023-12-04T02:25:27;7.45;;;7.31;;
71290;SDS011;59073;51.994;4.448;2023-12-04T02:27:53;7.90;;;7.79;;
71290;SDS011;59073;51.994;4.448;2023-12-04T02:30:22;7.15;;;7.07;;
71290;SDS011;59073;51.994;4.448;2023-12-04T02:32:50;8.35;;;8.19;;
71290;SDS011;59073;51.994;4.448;2023-12-04T02:35:22;7.77;;;7.66;;
71290;SDS011;59073;51.994;4.448;2023-12-04T02:37:51;7.77;;;7.73;;
71290;SDS011;59073;51.994;4.448;2023-12-04T02:40:18;7.48;;;7.40;;
71290;SDS011;59073;51.994;4.448;2023-12-04T02:42:44;8.00;;;7.89;;
71290;SDS011;59073;51.994;4.448;2023-12-04T02:45:10;7.42;;;7.32;;
71290;SDS011;59073;51.994;4.448;2023-12-04T02:47:35;7.49;;;7.37;;
71290;SDS011;59073;51.994;4.448;2023-12-04T02:50:01;7.70;;;7.54;;
71290;SDS011;59073;51.994;4.448;2023-12-04T02:52:26;7.69;;;7.55;;
71290;SDS011;59073;51.994;4.448;2023-12-04T02:54:52;7.81;;;7.64;;
71290;SDS011;59073;51.994;4.448;2023-12-04T02:57:17;7.51;;;7.41;;
71290;SDS011;59073;51.994;4.448;2023-12-04T02:59:42;7.12;;;7.00;;
71290;SDS011;59073;51.994;4.448;2023-12-04T03:02:08;7.63;;;7.47;;
71290;SDS011;59073;51.994;4.448;2023-12-04T03:04:34;7.67;;;7.46;;
71290;SDS011;59073;51.994;4.448;2023-12-04T03:07:00;7.19;;;7.06;;
71290;SDS011;59073;51.994;4.448;2023-12-04T03:09:26;7.40;;;7.32;;
71290;SDS011;59073;51.994;4.448;2023-12-04T03:11:51;7.46;;;7.34;;
71290;SDS011;59073;51.994;4.448;2023-12-04T03:14:17;6.91;;;6.82;;
71290;SDS011;59073;51.994;4.448;2023-12-04T03:16:42;7.17;;;7.01;;
71290;SDS011;59073;51.994;4.448;2023-12-04T03:19:08;6.82;;;6.71;;
71290;SDS011;59073;51.994;4.448;2023-12-04T03:21:33;7.30;;;7.18;;
71290;SDS011;59073;51.994;4.448;2023-12-04T03:23:58;7.33;;;7.20;;
71290;SDS011;59073;51.994;4.448;2023-12-04T03:26:24;7.13;;;7.01;;
71290;SDS011;59073;51.994;4.448;2023-12-04T03:28:49;6.33;;;6.29;;
71290;SDS011;59073;51.994;4.448;2023-12-04T03:31:15;6.42;;;6.37;;
71290;SDS011;59073;51.994;4.448;2023-12-04T03:33:40;7.60;;;7.51;;
71290;SDS011;59073;51.994;4.448;2023-12-04T03:36:06;6.91;;;6.80;;
71290;SDS011;59073;51.994;4.448;2023-12-04T03:38:32;6.72;;;6.60;;
71290;SDS011;59073;51.994;4.448;2023-12-04T03:40:57;6.83;;;6.63;;
71290;SDS011;59073;51.994;4.448;2023-12-04T03:43:22;6.48;;;6.37;;
71290;SDS011;59073;51.994;4.448;2023-12-04T03:45:48;6.80;;;6.64;;
71290;SDS011;59073;51.994;4.448;2023-12-04T03:48:13;6.32;;;6.21;;
71290;SDS011;59073;51.994;4.448;2023-12-04T03:50:39;6.58;;;6.49;;
71290;SDS011;59073;51.994;4.448;2023-12-04T03:53:04;6.41;;;6.31;;
71290;SDS011;59073;51.994;4.448;2023-12-04T03:55:30;6.13;;;6.04;;
71290;SDS011;59073;51.994;4.448;2023-12-04T03:57:56;6.25;;;6.13;;
71290;SDS011;59073;51.994;4.448;2023-12-04T04:00:22;5.94;;;5.79;;
71290;SDS011;59073;51.994;4.448;2023-12-04T04:02:48;6.39;;;6.22;;
71290;SDS011;59073;51.994;4.448;2023-12-04T04:05:14;6.30;;;6.17;;
71290;SDS011;59073;51.994;4.448;2023-12-04T04:07:39;5.65;;;5.53;;
71290;SDS011;59073;51.994;4.448;2023-12-04T04:10:05;6.01;;;5.87;;
71290;SDS011;59073;51.994;4.448;2023-12-04T04:12:32;5.94;;;5.85;;
71290;SDS011;59073;51.994;4.448;2023-12-04T04:14:58;5.52;;;5.47;;
71290;SDS011;59073;51.994;4.448;2023-12-04T04:17:23;5.76;;;5.68;;
71290;SDS011;59073;51.994;4.448;2023-12-04T04:19:52;5.75;;;5.64;;
71290;SDS011;59073;51.994;4.448;2023-12-04T04:22:18;5.38;;;5.29;;
71290;SDS011;59073;51.994;4.448;2023-12-04T04:24:44;5.89;;;5.83;;
71290;SDS011;59073;51.994;4.448;2023-12-04T04:27:09;5.76;;;5.69;;
71290;SDS011;59073;51.994;4.448;2023-12-04T04:29:35;5.93;;;5.81;;
71290;SDS011;59073;51.994;4.448;2023-12-04T04:32:00;5.95;;;5.85;;
71290;SDS011;59073;51.994;4.448;2023-12-04T04:34:26;5.68;;;5.63;;
71290;SDS011;59073;51.994;4.448;2023-12-04T04:36:51;5.43;;;5.35;;
71290;SDS011;59073;51.994;4.448;2023-12-04T04:39:16;5.87;;;5.70;;
71290;SDS011;59073;51.994;4.448;2023-12-04T04:41:42;5.74;;;5.64;;
71290;SDS011;59073;51.994;4.448;2023-12-04T04:44:09;5.84;;;5.73;;
71290;SDS011;59073;51.994;4.448;2023-12-04T04:46:34;5.50;;;5.37;;
71290;SDS011;59073;51.994;4.448;2023-12-04T04:49:00;5.76;;;5.62;;
71290;SDS011;59073;51.994;4.448;2023-12-04T04:51:25;5.72;;;5.60;;
71290;SDS011;59073;51.994;4.448;2023-12-04T04:53:50;5.96;;;5.80;;
71290;SDS011;59073;51.994;4.448;2023-12-04T04:56:17;6.36;;;6.22;;
71290;SDS011;59073;51.994;4.448;2023-12-04T04:58:42;5.72;;;5.60;;
71290;SDS011;59073;51.994;4.448;2023-12-04T05:01:08;5.77;;;5.64;;
71290;SDS011;59073;51.994;4.448;2023-12-04T05:03:33;5.97;;;5.82;;
71290;SDS011;59073;51.994;4.448;2023-12-04T05:05:59;5.27;;;5.12;;
71290;SDS011;59073;51.994;4.448;2023-12-04T05:08:25;6.19;;;6.00;;
71290;SDS011;59073;51.994;4.448;2023-12-04T05:10:50;5.74;;;5.60;;
71290;SDS011;59073;51.994;4.448;2023-12-04T05:13:15;6.25;;;6.16;;
71290;SDS011;59073;51.994;4.448;2023-12-04T05:15:41;5.37;;;5.31;;
71290;SDS011;59073;51.994;4.448;2023-12-04T05:18:06;5.60;;;5.54;;
71290;SDS011;59073;51.994;4.448;2023-12-04T05:20:32;5.48;;;5.40;;
71290;SDS011;59073;51.994;4.448;2023-12-04T05:22:57;5.70;;;5.59;;
71290;SDS011;59073;51.994;4.448;2023-12-04T05:25:23;6.17;;;5.98;;
71290;SDS011;59073;51.994;4.448;2023-12-04T05:27:48;5.88;;;5.80;;
71290;SDS011;59073;51.994;4.448;2023-12-04T05:30:13;5.82;;;5.72;;
71290;SDS011;59073;51.994;4.448;2023-12-04T05:32:39;5.42;;;5.37;;
71290;SDS011;59073;51.994;4.448;2023-12-04T05:35:05;5.93;;;5.87;;
71290;SDS011;59073;51.994;4.448;2023-12-04T05:37:30;5.40;;;5.36;;
71290;SDS011;59073;51.994;4.448;2023-12-04T05:39:56;5.62;;;5.54;;
71290;SDS011;59073;51.994;4.448;2023-12-04T05:42:21;5.33;;;5.25;;
71290;SDS011;59073;51.994;4.448;2023-12-04T05:44:47;6.29;;;6.19;;
71290;SDS011;59073;51.994;4.448;2023-12-04T05:47:12;5.99;;;5.88;;
71290;SDS011;59073;51.994;4.448;2023-12-04T05:49:37;6.00;;;5.88;;
71290;SDS011;59073;51.994;4.448;2023-12-04T05:52:03;5.95;;;5.83;;
71290;SDS011;59073;51.994;4.448;2023-12-04T05:54:28;6.10;;;6.01;;
71290;SDS011;59073;51.994;4.448;2023-12-04T05:56:54;5.72;;;5.65;;
71290;SDS011;59073;51.994;4.448;2023-12-04T05:59:20;5.79;;;5.72;;
71290;SDS011;59073;51.994;4.448;2023-12-04T06:01:45;5.94;;;5.89;;
71290;SDS011;59073;51.994;4.448;2023-12-04T06:04:10;5.83;;;5.76;;
71290;SDS011;59073;51.994;4.448;2023-12-04T06:06:36;6.25;;;6.13;;
71290;SDS011;59073;51.994;4.448;2023-12-04T06:09:01;6.15;;;6.06;;
71290;SDS011;59073;51.994;4.448;2023-12-04T06:11:27;6.37;;;6.30;;
71290;SDS011;59073;51.994;4.448;2023-12-04T06:13:52;6.07;;;6.01;;
71290;SDS011;59073;51.994;4.448;2023-12-04T06:16:17;6.69;;;6.57;;
71290;SDS011;59073;51.994;4.448;2023-12-04T06:18:43;6.13;;;6.05;;
71290;SDS011;59073;51.994;4.448;2023-12-04T06:21:08;6.16;;;6.09;;
71290;SDS011;59073;51.994;4.448;2023-12-04T06:23:34;6.21;;;6.14;;
71290;SDS011;59073;51.994;4.448;2023-12-04T06:26:00;6.42;;;6.27;;
71290;SDS011;59073;51.994;4.448;2023-12-04T06:28:26;6.51;;;6.39;;
71290;SDS011;59073;51.994;4.448;2023-12-04T06:30:52;6.72;;;6.58;;
71290;SDS011;59073;51.994;4.448;2023-12-04T06:33:17;6.49;;;6.36;;
71290;SDS011;59073;51.994;4.448;2023-12-04T06:35:45;6.77;;;6.67;;
71290;SDS011;59073;51.994;4.448;2023-12-04T06:38:11;6.44;;;6.36;;
71290;SDS011;59073;51.994;4.448;2023-12-04T06:40:43;7.01;;;6.85;;
71290;SDS011;59073;51.994;4.448;2023-12-04T06:43:09;6.70;;;6.56;;
71290;SDS011;59073;51.994;4.448;2023-12-04T06:45:35;6.58;;;6.45;;
71290;SDS011;59073;51.994;4.448;2023-12-04T06:48:00;6.74;;;6.65;;
71290;SDS011;59073;51.994;4.448;2023-12-04T06:50:26;6.60;;;6.49;;
71290;SDS011;59073;51.994;4.448;2023-12-04T06:52:52;6.35;;;6.33;;
71290;SDS011;59073;51.994;4.448;2023-12-04T06:55:18;6.33;;;6.29;;
71290;SDS011;59073;51.994;4.448;2023-12-04T06:57:43;5.57;;;5.54;;
71290;SDS011;59073;51.994;4.448;2023-12-04T07:00:09;6.02;;;5.97;;
71290;SDS011;59073;51.994;4.448;2023-12-04T07:02:39;5.97;;;5.90;;
71290;SDS011;59073;51.994;4.448;2023-12-04T07:05:04;6.52;;;6.38;;
71290;SDS011;59073;51.994;4.448;2023-12-04T07:07:30;5.96;;;5.92;;
71290;SDS011;59073;51.994;4.448;2023-12-04T07:09:56;6.00;;;5.98;;
71290;SDS011;59073;51.994;4.448;2023-12-04T07:12:21;5.49;;;5.44;;
71290;SDS011;59073;51.994;4.448;2023-12-04T07:14:47;5.77;;;5.70;;
71290;SDS011;59073;51.994;4.448;2023-12-04T07:17:12;6.12;;;6.06;;
71290;SDS011;59073;51.994;4.448;2023-12-04T07:19:40;6.29;;;6.21;;
71290;SDS011;59073;51.994;4.448;2023-12-04T07:22:06;5.45;;;5.42;;
71290;SDS011;59073;51.994;4.448;2023-12-04T07:24:31;5.61;;;5.56;;
71290;SDS011;59073;51.994;4.448;2023-12-04T07:26:58;6.02;;;5.86;;
71290;SDS011;59073;51.994;4.448;2023-12-04T07:29:23;6.41;;;6.20;;
71290;SDS011;59073;51.994;4.448;2023-12-04T07:31:49;5.51;;;5.45;;
71290;SDS011;59073;51.994;4.448;2023-12-04T07:34:14;5.75;;;5.72;;
71290;SDS011;59073;51.994;4.448;2023-12-04T07:36:40;5.56;;;5.53;;
71290;SDS011;59073;51.994;4.448;2023-12-04T07:39:05;5.94;;;5.89;;
71290;SDS011;59073;51.994;4.448;2023-12-04T07:41:32;5.88;;;5.82;;
71290;SDS011;59073;51.994;4.448;2023-12-04T07:43:57;6.30;;;6.27;;
71290;SDS011;59073;51.994;4.448;2023-12-04T07:46:23;5.53;;;5.52;;
71290;SDS011;59073;51.994;4.448;2023-12-04T07:48:48;5.94;;;5.93;;
71290;SDS011;59073;51.994;4.448;2023-12-04T07:51:13;5.95;;;5.92;;
71290;SDS011;59073;51.994;4.448;2023-12-04T07:53:39;6.31;;;6.21;;
71290;SDS011;59073;51.994;4.448;2023-12-04T07:56:05;5.72;;;5.66;;
71290;SDS011;59073;51.994;4.448;2023-12-04T07:58:31;5.74;;;5.70;;
71290;SDS011;59073;51.994;4.448;2023-12-04T08:00:57;5.86;;;5.79;;
71290;SDS011;59073;51.994;4.448;2023-12-04T08:03:22;5.78;;;5.69;;
71290;SDS011;59073;51.994;4.448;2023-12-04T08:05:49;5.83;;;5.78;;
71290;SDS011;59073;51.994;4.448;2023-12-04T08:08:18;5.78;;;5.70;;
71290;SDS011;59073;51.994;4.448;2023-12-04T08:10:43;6.00;;;5.90;;
71290;SDS011;59073;51.994;4.448;2023-12-04T08:13:09;5.58;;;5.49;;
71290;SDS011;59073;51.994;4.448;2023-12-04T08:15:34;5.76;;;5.69;;
71290;SDS011;59073;51.994;4.448;2023-12-04T08:18:00;5.46;;;5.43;;
71290;SDS011;59073;51.994;4.448;2023-12-04T08:20:25;5.59;;;5.57;;
71290;SDS011;59073;51.994;4.448;2023-12-04T08:22:51;5.52;;;5.48;;
71290;SDS011;59073;51.994;4.448;2023-12-04T08:25:17;5.71;;;5.60;;
71290;SDS011;59073;51.994;4.448;2023-12-04T08:27:42;6.03;;;5.87;;
71290;SDS011;59073;51.994;4.448;2023-12-04T08:30:08;5.92;;;5.81;;
71290;SDS011;59073;51.994;4.448;2023-12-04T08:32:33;5.99;;;5.86;;
71290;SDS011;59073;51.994;4.448;2023-12-04T08:34:59;5.66;;;5.61;;
71290;SDS011;59073;51.994;4.448;2023-12-04T08:37:24;5.65;;;5.61;;
71290;SDS011;59073;51.994;4.448;2023-12-04T08:39:50;5.36;;;5.29;;
71290;SDS011;59073;51.994;4.448;2023-12-04T08:42:16;5.69;;;5.65;;
71290;SDS011;59073;51.994;4.448;2023-12-04T08:44:41;5.36;;;5.30;;
71290;SDS011;59073;51.994;4.448;2023-12-04T08:47:07;6.17;;;6.11;;
71290;SDS011;59073;51.994;4.448;2023-12-04T08:49:33;5.43;;;5.37;;
71290;SDS011;59073;51.994;4.448;2023-12-04T08:51:59;5.68;;;5.65;;
71290;SDS011;59073;51.994;4.448;2023-12-04T08:54:24;5.87;;;5.78;;
71290;SDS011;59073;51.994;4.448;2023-12-04T08:56:50;6.23;;;6.15;;
71290;SDS011;59073;51.994;4.448;2023-12-04T08:59:15;5.79;;;5.70;;
71290;SDS011;59073;51.994;4.448;2023-12-04T09:01:42;5.80;;;5.72;;
71290;SDS011;59073;51.994;4.448;2023-12-04T09:04:08;6.01;;;5.84;;
71290;SDS011;59073;51.994;4.448;2023-12-04T09:06:35;6.13;;;6.02;;
71290;SDS011;59073;51.994;4.448;2023-12-04T09:09:00;5.95;;;5.89;;
71290;SDS011;59073;51.994;4.448;2023-12-04T09:11:27;5.56;;;5.52;;
71290;SDS011;59073;51.994;4.448;2023-12-04T09:13:52;5.71;;;5.68;;
71290;SDS011;59073;51.994;4.448;2023-12-04T09:16:18;5.51;;;5.48;;
71290;SDS011;59073;51.994;4.448;2023-12-04T09:18:43;5.79;;;5.73;;
71290;SDS011;59073;51.994;4.448;2023-12-04T09:21:09;5.70;;;5.66;;
71290;SDS011;59073;51.994;4.448;2023-12-04T09:23:35;5.73;;;5.69;;
71290;SDS011;59073;51.994;4.448;2023-12-04T09:26:00;5.75;;;5.70;;
71290;SDS011;59073;51.994;4.448;2023-12-04T09:28:26;5.57;;;5.51;;
71290;SDS011;59073;51.994;4.448;2023-12-04T09:30:52;5.53;;;5.50;;
71290;SDS011;59073;51.994;4.448;2023-12-04T09:33:18;5.53;;;5.51;;
71290;SDS011;59073;51.994;4.448;2023-12-04T09:35:43;5.55;;;5.52;;
71290;SDS011;59073;51.994;4.448;2023-12-04T09:38:09;5.74;;;5.69;;
71290;SDS011;59073;51.994;4.448;2023-12-04T09:40:35;5.74;;;5.73;;
71290;SDS011;59073;51.994;4.448;2023-12-04T09:43:01;5.68;;;5.64;;
71290;SDS011;59073;51.994;4.448;2023-12-04T09:45:26;5.83;;;5.79;;
71290;SDS011;59073;51.994;4.448;2023-12-04T09:47:54;5.72;;;5.67;;
71290;SDS011;59073;51.994;4.448;2023-12-04T09:50:21;5.57;;;5.56;;
71290;SDS011;59073;51.994;4.448;2023-12-04T09:52:48;5.61;;;5.57;;
71290;SDS011;59073;51.994;4.448;2023-12-04T09:55:15;5.70;;;5.64;;
71290;SDS011;59073;51.994;4.448;2023-12-04T09:57:41;5.46;;;5.43;;
71290;SDS011;59073;51.994;4.448;2023-12-04T10:00:07;5.73;;;5.69;;
71290;SDS011;59073;51.994;4.448;2023-12-04T10:02:35;5.87;;;5.82;;
71290;SDS011;59073;51.994;4.448;2023-12-04T10:05:02;5.93;;;5.84;;
71290;SDS011;59073;51.994;4.448;2023-12-04T10:07:30;5.78;;;5.77;;
71290;SDS011;59073;51.994;4.448;2023-12-04T10:09:56;5.95;;;5.92;;
71290;SDS011;59073;51.994;4.448;2023-12-04T10:12:22;5.98;;;5.95;;
71290;SDS011;59073;51.994;4.448;2023-12-04T10:15:02;5.56;;;5.53;;
71290;SDS011;59073;51.994;4.448;2023-12-04T10:17:32;5.59;;;5.52;;
71290;SDS011;59073;51.994;4.448;2023-12-04T10:20:09;5.34;;;5.28;;
71290;SDS011;59073;51.994;4.448;2023-12-04T10:22:56;5.55;;;5.50;;
71290;SDS011;59073;51.994;4.448;2023-12-04T10:25:24;5.59;;;5.53;;
71290;SDS011;59073;51.994;4.448;2023-12-04T10:27:52;5.61;;;5.55;;
71290;SDS011;59073;51.994;4.448;2023-12-04T10:30:29;5.40;;;5.35;;
71290;SDS011;59073;51.994;4.448;2023-12-04T10:33:01;5.54;;;5.49;;
71290;SDS011;59073;51.994;4.448;2023-12-04T10:35:30;5.38;;;5.33;;
71290;SDS011;59073;51.994;4.448;2023-12-04T10:37:57;5.27;;;5.24;;
71290;SDS011;59073;51.994;4.448;2023-12-04T10:40:31;5.76;;;5.76;;
71290;SDS011;59073;51.994;4.448;2023-12-04T10:43:17;5.31;;;5.27;;
71290;SDS011;59073;51.994;4.448;2023-12-04T10:45:48;5.65;;;5.62;;
71290;SDS011;59073;51.994;4.448;2023-12-04T10:48:14;5.33;;;5.31;;
71290;SDS011;59073;51.994;4.448;2023-12-04T10:50:42;5.37;;;5.37;;
71290;SDS011;59073;51.994;4.448;2023-12-04T10:53:12;5.41;;;5.41;;
71290;SDS011;59073;51.994;4.448;2023-12-04T10:55:40;5.27;;;5.25;;
71290;SDS011;59073;51.994;4.448;2023-12-04T10:58:10;4.97;;;4.92;;
71290;SDS011;59073;51.994;4.448;2023-12-04T11:00:42;5.29;;;5.22;;
71290;SDS011;59073;51.994;4.448;2023-12-04T11:03:13;5.21;;;5.18;;
71290;SDS011;59073;51.994;4.448;2023-12-04T11:06:00;5.46;;;5.39;;
71290;SDS011;59073;51.994;4.448;2023-12-04T11:08:29;5.47;;;5.39;;
71290;SDS011;59073;51.994;4.448;2023-12-04T11:11:04;5.38;;;5.28;;
71290;SDS011;59073;51.994;4.448;2023-12-04T11:13:40;5.33;;;5.27;;
71290;SDS011;59073;51.994;4.448;2023-12-04T11:19:05;5.27;;;5.21;;
71290;SDS011;59073;51.994;4.448;2023-12-04T11:21:34;5.04;;;5.01;;
71290;SDS011;59073;51.994;4.448;2023-12-04T11:24:00;5.29;;;5.28;;
71290;SDS011;59073;51.994;4.448;2023-12-04T11:26:28;5.33;;;5.32;;
71290;SDS011;59073;51.994;4.448;2023-12-04T11:28:55;4.86;;;4.86;;
71290;SDS011;59073;51.994;4.448;2023-12-04T11:31:21;5.10;;;5.10;;
71290;SDS011;59073;51.994;4.448;2023-12-04T11:33:47;5.25;;;5.24;;
71290;SDS011;59073;51.994;4.448;2023-12-04T11:36:13;5.01;;;4.99;;
71290;SDS011;59073;51.994;4.448;2023-12-04T11:38:46;4.94;;;4.92;;
71290;SDS011;59073;51.994;4.448;2023-12-04T11:41:17;5.51;;;5.48;;
71290;SDS011;59073;51.994;4.448;2023-12-04T11:43:45;5.03;;;4.99;;
71290;SDS011;59073;51.994;4.448;2023-12-04T11:46:12;5.23;;;5.19;;
71290;SDS011;59073;51.994;4.448;2023-12-04T11:48:45;5.16;;;5.11;;
71290;SDS011;59073;51.994;4.448;2023-12-04T11:51:14;4.99;;;4.94;;
71290;SDS011;59073;51.994;4.448;2023-12-04T11:54:00;5.06;;;5.03;;
71290;SDS011;59073;51.994;4.448;2023-12-04T11:56:30;5.11;;;5.09;;
71290;SDS011;59073;51.994;4.448;2023-12-04T11:59:00;5.08;;;5.06;;
71290;SDS011;59073;51.994;4.448;2023-12-04T12:01:28;5.15;;;5.14;;
71290;SDS011;59073;51.994;4.448;2023-12-04T12:03:57;5.25;;;5.24;;
71290;SDS011;59073;51.994;4.448;2023-12-04T12:06:23;5.24;;;5.23;;
71290;SDS011;59073;51.994;4.448;2023-12-04T12:08:50;5.29;;;5.28;;
71290;SDS011;59073;51.994;4.448;2023-12-04T12:11:16;4.99;;;4.99;;
71290;SDS011;59073;51.994;4.448;2023-12-04T12:13:42;5.03;;;5.03;;
71290;SDS011;59073;51.994;4.448;2023-12-04T12:16:07;5.34;;;5.31;;
71290;SDS011;59073;51.994;4.448;2023-12-04T12:18:36;5.06;;;5.03;;
71290;SDS011;59073;51.994;4.448;2023-12-04T12:21:02;4.76;;;4.75;;
71290;SDS011;59073;51.994;4.448;2023-12-04T12:23:28;4.63;;;4.61;;
71290;SDS011;59073;51.994;4.448;2023-12-04T12:25:54;4.73;;;4.70;;
71290;SDS011;59073;51.994;4.448;2023-12-04T12:28:20;4.77;;;4.74;;
71290;SDS011;59073;51.994;4.448;2023-12-04T12:30:45;4.65;;;4.64;;
71290;SDS011;59073;51.994;4.448;2023-12-04T12:33:15;4.58;;;4.54;;
71290;SDS011;59073;51.994;4.448;2023-12-04T12:35:41;4.97;;;4.85;;
71290;SDS011;59073;51.994;4.448;2023-12-04T12:38:07;5.00;;;4.86;;
71290;SDS011;59073;51.994;4.448;2023-12-04T12:40:33;5.37;;;5.34;;
71290;SDS011;59073;51.994;4.448;2023-12-04T12:43:05;4.62;;;4.61;;
71290;SDS011;59073;51.994;4.448;2023-12-04T12:45:41;4.58;;;4.57;;
71290;SDS011;59073;51.994;4.448;2023-12-04T12:48:14;5.33;;;5.32;;
71290;SDS011;59073;51.994;4.448;2023-12-04T12:50:42;5.23;;;5.20;;
71290;SDS011;59073;51.994;4.448;2023-12-04T12:53:10;5.11;;;5.08;;
71290;SDS011;59073;51.994;4.448;2023-12-04T12:55:40;5.18;;;5.15;;
71290;SDS011;59073;51.994;4.448;2023-12-04T12:58:07;5.36;;;5.33;;
71290;SDS011;59073;51.994;4.448;2023-12-04T13:00:34;5.41;;;5.34;;
71290;SDS011;59073;51.994;4.448;2023-12-04T13:02:59;5.31;;;5.24;;
71290;SDS011;59073;51.994;4.448;2023-12-04T13:05:26;4.98;;;4.92;;
71290;SDS011;59073;51.994;4.448;2023-12-04T13:07:52;5.48;;;5.40;;
71290;SDS011;59073;51.994;4.448;2023-12-04T13:10:17;5.33;;;5.23;;
71290;SDS011;59073;51.994;4.448;2023-12-04T13:12:43;5.06;;;5.02;;
71290;SDS011;59073;51.994;4.448;2023-12-04T13:15:08;4.98;;;4.96;;
71290;SDS011;59073;51.994;4.448;2023-12-04T13:17:35;5.52;;;5.50;;
71290;SDS011;59073;51.994;4.448;2023-12-04T13:20:01;5.72;;;5.68;;
71290;SDS011;59073;51.994;4.448;2023-12-04T13:22:29;5.92;;;5.87;;
71290;SDS011;59073;51.994;4.448;2023-12-04T13:24:54;5.62;;;5.58;;
71290;SDS011;59073;51.994;4.448;2023-12-04T13:27:20;6.08;;;6.01;;
71290;SDS011;59073;51.994;4.448;2023-12-04T13:29:45;5.64;;;5.59;;
71290;SDS011;59073;51.994;4.448;2023-12-04T13:32:15;5.84;;;5.78;;
71290;SDS011;59073;51.994;4.448;2023-12-04T13:34:41;5.76;;;5.66;;
71290;SDS011;59073;51.994;4.448;2023-12-04T13:37:07;6.34;;;6.25;;
71290;SDS011;59073;51.994;4.448;2023-12-04T13:39:33;5.66;;;5.65;;
71290;SDS011;59073;51.994;4.448;2023-12-04T13:42:15;6.09;;;6.03;;
71290;SDS011;59073;51.994;4.448;2023-12-04T13:45:00;6.34;;;6.24;;
71290;SDS011;59073;51.994;4.448;2023-12-04T13:47:27;6.41;;;6.33;;
71290;SDS011;59073;51.994;4.448;2023-12-04T13:49:52;6.65;;;6.58;;
71290;SDS011;59073;51.994;4.448;2023-12-04T13:52:18;6.44;;;6.35;;
71290;SDS011;59073;51.994;4.448;2023-12-04T13:54:47;6.86;;;6.76;;
71290;SDS011;59073;51.994;4.448;2023-12-04T13:57:14;7.10;;;6.99;;
71290;SDS011;59073;51.994;4.448;2023-12-04T14:00:00;6.83;;;6.72;;
71290;SDS011;59073;51.994;4.448;2023-12-04T14:02:26;7.29;;;7.17;;
71290;SDS011;59073;51.994;4.448;2023-12-04T14:04:52;7.48;;;7.41;;
71290;SDS011;59073;51.994;4.448;2023-12-04T14:07:17;7.35;;;7.29;;
71290;SDS011;59073;51.994;4.448;2023-12-04T14:09:43;6.89;;;6.89;;
71290;SDS011;59073;51.994;4.448;2023-12-04T14:12:13;8.13;;;8.08;;
71290;SDS011;59073;51.994;4.448;2023-12-04T14:14:41;7.63;;;7.54;;
71290;SDS011;59073;51.994;4.448;2023-12-04T14:17:06;7.29;;;7.22;;
71290;SDS011;59073;51.994;4.448;2023-12-04T14:19:34;7.43;;;7.41;;
71290;SDS011;59073;51.994;4.448;2023-12-04T14:21:59;7.73;;;7.68;;
71290;SDS011;59073;51.994;4.448;2023-12-04T14:24:25;7.33;;;7.24;;
71290;SDS011;59073;51.994;4.448;2023-12-04T14:26:51;7.56;;;7.46;;
71290;SDS011;59073;51.994;4.448;2023-12-04T14:29:18;7.99;;;7.93;;
71290;SDS011;59073;51.994;4.448;2023-12-04T14:31:44;8.45;;;8.36;;
71290;SDS011;59073;51.994;4.448;2023-12-04T14:34:10;8.44;;;8.25;;
71290;SDS011;59073;51.994;4.448;2023-12-04T14:36:35;7.87;;;7.71;;
71290;SDS011;59073;51.994;4.448;2023-12-04T14:39:02;7.97;;;7.92;;
71290;SDS011;59073;51.994;4.448;2023-12-04T14:41:28;7.72;;;7.66;;
71290;SDS011;59073;51.994;4.448;2023-12-04T14:43:53;7.84;;;7.81;;
71290;SDS011;59073;51.994;4.448;2023-12-04T14:46:19;7.54;;;7.50;;
71290;SDS011;59073;51.994;4.448;2023-12-04T14:48:45;7.89;;;7.85;;